Time;durP1;ratioP1;P1;durP2;ratioP2;P2;SDS_P1;SDS_P2;PMS_P1;PMS_P2;Temp;Humidity;BMP_temperature;BMP_pressure;BME280_temperature;BME280_humidity;BME280_pressure;Samples;Min_cycle;Max_cycle;Signal;HPM_P1;HPM_P2
2022/09/26 00:01:38;;;;;;;;;1.00;1.00;;;;;22.70;39.04;100894.22;4922855;28;45375;-54
2022/09/26 00:04:08;;;;;;;;;0.25;0.25;;;;;22.68;38.96;100893.47;4903750;28;45493;-51
2022/09/26 00:06:34;;;;;;;;;1.50;1.50;;;;;22.68;39.11;100890.84;4925813;28;45447;-48
2022/09/26 00:08:59;;;;;;;;;2.00;0.00;;;;;22.67;39.50;100886.50;4925704;28;46604;-49
2022/09/26 00:11:30;;;;;;;;;1.25;1.00;;;;;22.66;39.08;100879.50;4922065;28;54209;-51
2022/09/26 00:13:59;;;;;;;;;1.00;1.00;;;;;22.66;39.16;100883.03;4918200;28;45465;-52
2022/09/26 00:16:25;;;;;;;;;1.00;1.00;;;;;22.66;39.51;100880.38;4918068;28;45527;-48
2022/09/26 00:18:53;;;;;;;;;2.75;1.00;;;;;22.65;39.20;100877.84;4916154;28;46285;-49
2022/09/26 00:21:19;;;;;;;;;1.00;1.00;;;;;22.64;39.24;100876.16;4918017;28;45285;-52
2022/09/26 00:23:46;;;;;;;;;1.00;1.00;;;;;22.64;39.45;100873.50;4918959;28;45582;-52
2022/09/26 00:26:18;;;;;;;;;0.75;0.75;;;;;22.64;39.24;100870.88;4922024;28;45323;-53
2022/09/26 00:28:43;;;;;;;;;1.00;1.00;;;;;22.63;39.14;100870.00;4930013;28;45113;-52
2022/09/26 00:31:18;;;;;;;;;2.00;0.50;;;;;22.63;39.20;100853.31;4931005;28;45256;-53
2022/09/26 00:33:44;;;;;;;;;0.25;0.25;;;;;22.62;39.17;100857.72;4933408;28;45287;-52
2022/09/26 00:36:10;;;;;;;;;1.00;1.00;;;;;22.62;39.08;100851.63;4923394;28;45236;-47
2022/09/26 00:38:36;;;;;;;;;1.00;1.00;;;;;22.61;39.12;100847.28;4924246;28;46007;-50
2022/09/26 00:41:03;;;;;;;;;2.00;1.00;;;;;22.61;39.27;100849.91;4926966;28;45358;-51
2022/09/26 00:43:40;;;;;;;;;1.00;1.00;;;;;22.62;39.30;100841.06;4926488;28;45433;-53
2022/09/26 00:46:19;;;;;;;;;2.50;1.00;;;;;22.60;39.15;100837.66;4928064;28;45393;-58
2022/09/26 00:48:50;;;;;;;;;1.25;1.00;;;;;22.59;39.26;100835.97;4928331;28;46747;-55
2022/09/26 00:51:16;;;;;;;;;1.00;1.00;;;;;22.59;39.18;100836.81;4930375;28;44997;-54
2022/09/26 00:53:45;;;;;;;;;1.00;1.00;;;;;22.59;38.95;100825.38;4930512;28;45242;-53
2022/09/26 00:56:16;;;;;;;;;1.00;1.00;;;;;22.58;39.01;100823.69;4934306;28;45436;-50
2022/09/26 00:58:48;;;;;;;;;1.00;1.00;;;;;22.57;39.17;100833.41;4936889;28;45386;-52
2022/09/26 01:01:14;;;;;;;;;1.00;1.00;;;;;22.57;39.14;100833.41;4923802;28;45526;-51
2022/09/26 01:03:43;;;;;;;;;1.50;1.00;;;;;22.57;39.34;100824.63;4923821;28;45251;-52
2022/09/26 01:06:09;;;;;;;;;1.50;1.00;;;;;22.56;39.23;100815.88;4921191;28;45566;-49
2022/09/26 01:08:40;;;;;;;;;1.50;1.00;;;;;22.55;39.18;100809.72;4921667;28;46368;-54
2022/09/26 01:11:06;;;;;;;;;2.00;1.25;;;;;22.55;39.08;100817.66;4920898;28;45743;-55
2022/09/26 01:13:34;;;;;;;;;0.75;0.75;;;;;22.54;38.82;100820.41;4920770;28;45271;-53
2022/09/26 01:15:59;;;;;;;;;1.00;1.00;;;;;22.54;39.15;100815.94;4920490;28;45616;-48
2022/09/26 01:18:25;;;;;;;;;0.00;0.00;;;;;22.53;39.02;100816.94;4920522;28;47484;-51
2022/09/26 01:20:58;;;;;;;;;3.00;1.00;;;;;22.52;39.26;100820.50;4923961;28;45315;-50
2022/09/26 01:23:26;;;;;;;;;1.00;1.00;;;;;22.52;39.28;100820.50;4936857;28;45402;-53
2022/09/26 01:26:04;;;;;;;;;1.50;1.00;;;;;22.54;39.23;100823.03;4932200;28;45889;-56
2022/09/26 01:28:58;;;;;;;;;1.00;1.00;;;;;22.52;39.21;100817.88;4925102;28;46354;-56
2022/09/26 01:31:39;;;;;;;;;2.75;1.00;;;;;22.52;39.31;100814.38;4920159;28;45349;-55
2022/09/26 01:34:33;;;;;;;;;1.00;1.00;;;;;22.52;39.19;100811.72;4923034;28;45488;-56
2022/09/26 01:37:09;;;;;;;;;1.00;1.00;;;;;22.51;39.15;100813.53;4924252;28;45532;-54
2022/09/26 01:39:51;;;;;;;;;1.00;0.50;;;;;22.50;39.00;100806.56;4924153;28;46759;-54
2022/09/26 01:43:10;;;;;;;;;0.50;0.00;;;;;22.49;39.20;100796.94;4924285;28;45143;-52
2022/09/26 01:45:50;;;;;;;;;0.50;0.50;;;;;22.49;39.25;100802.22;4888485;29;45324;-52
2022/09/26 01:48:32;;;;;;;;;0.75;0.75;;;;;22.49;39.10;100799.56;4927716;28;45548;-58
2022/09/26 01:51:11;;;;;;;;;1.00;1.00;;;;;22.48;39.42;100797.88;4923991;28;45475;-53
2022/09/26 01:53:45;;;;;;;;;3.00;1.75;;;;;22.49;39.10;100793.47;4930830;28;45172;-55
2022/09/26 01:56:18;;;;;;;;;1.00;1.00;;;;;22.47;39.31;100782.97;4927576;28;45203;-51
2022/09/26 01:58:53;;;;;;;;;1.00;1.00;;;;;22.48;39.21;100783.84;4923793;28;45397;-49
2022/09/26 02:01:21;;;;;;;;;0.00;0.00;;;;;22.47;39.55;100776.84;4938343;28;47262;-53
2022/09/26 02:04:08;;;;;;;;;1.00;1.00;;;;;22.46;39.09;100773.34;4940226;28;45019;-53
2022/09/26 02:06:42;;;;;;;;;2.00;1.25;;;;;22.46;38.90;100767.25;4944068;28;44869;-55
2022/09/26 02:09:15;;;;;;;;;1.00;1.00;;;;;22.45;39.39;100760.25;4943615;28;45039;-50
2022/09/26 02:11:47;;;;;;;;;1.00;1.00;;;;;22.45;39.19;100758.44;4938754;28;45340;-52
2022/09/26 02:14:20;;;;;;;;;0.50;0.50;;;;;22.45;39.26;100758.44;4930915;28;45680;-55
2022/09/26 02:16:49;;;;;;;;;1.25;0.00;;;;;22.44;39.19;100751.47;4928479;28;45442;-50
2022/09/26 02:19:27;;;;;;;;;1.00;1.00;;;;;22.45;39.10;100754.97;4931591;28;45335;-52
2022/09/26 02:21:53;;;;;;;;;1.25;0.75;;;;;22.44;39.15;100759.41;4927093;28;47357;-55
2022/09/26 02:24:19;;;;;;;;;0.00;0.00;;;;;22.44;39.09;100753.28;4923960;28;45627;-51
2022/09/26 02:26:44;;;;;;;;;1.00;1.00;;;;;22.44;39.02;100737.44;4922992;28;45266;-52
2022/09/26 02:29:13;;;;;;;;;0.25;0.25;;;;;22.43;39.22;100735.75;4922906;28;45368;-52
2022/09/26 02:31:49;;;;;;;;;1.00;1.00;;;;;22.44;39.03;100740.06;4922386;28;45466;-51
2022/09/26 02:34:15;;;;;;;;;1.75;1.00;;;;;22.42;38.95;100726.97;4923152;28;45571;-53
2022/09/26 02:36:40;;;;;;;;;1.00;1.00;;;;;22.42;39.07;100724.34;4920239;28;45525;-54
2022/09/26 02:39:08;;;;;;;;;1.00;1.00;;;;;22.41;39.10;100725.28;4919908;28;45570;-49
2022/09/26 02:41:46;;;;;;;;;1.50;1.00;;;;;22.42;39.20;100715.56;4920342;28;46244;-54
2022/09/26 02:44:32;;;;;;;;;1.00;1.00;;;;;22.42;39.20;100705.84;4923199;28;45890;-54
2022/09/26 02:47:09;;;;;;;;;1.00;1.00;;;;;22.41;39.08;100706.81;4929275;28;45322;-53
2022/09/26 02:49:55;;;;;;;;;1.00;1.00;;;;;22.41;39.16;100696.25;4928279;28;44867;-56
2022/09/26 02:52:35;;;;;;;;;1.00;1.00;;;;;22.41;38.95;100683.03;4938822;28;45504;-55
2022/09/26 02:55:20;;;;;;;;;1.50;1.00;;;;;22.40;38.99;100683.94;4933854;28;45401;-51
2022/09/26 02:58:12;;;;;;;;;1.00;1.00;;;;;22.39;39.04;100676.97;4924104;28;45381;-53
2022/09/26 03:01:14;;;;;;;;;1.00;1.00;;;;;22.38;38.85;100668.19;4922825;28;45188;-53
2022/09/26 03:03:46;;;;;;;;;1.25;1.00;;;;;22.38;39.03;100662.06;4920261;28;46900;-55
2022/09/26 03:06:16;;;;;;;;;0.25;0.25;;;;;22.38;39.12;100664.72;4921370;28;45492;-51
2022/09/26 03:08:45;;;;;;;;;1.00;1.00;;;;;22.37;39.01;100657.72;4922376;28;45448;-48
2022/09/26 03:11:16;;;;;;;;;0.50;0.50;;;;;22.37;39.09;100653.31;4922321;28;45377;-50
2022/09/26 03:13:44;;;;;;;;;0.00;0.00;;;;;22.37;38.93;100647.19;4921377;28;45343;-52
2022/09/26 03:16:11;;;;;;;;;1.00;1.00;;;;;22.35;39.15;100638.50;4925134;28;45653;-55
2022/09/26 03:18:52;;;;;;;;;1.00;1.00;;;;;22.35;39.25;100633.22;4926857;28;45408;-52
2022/09/26 03:21:18;;;;;;;;;1.50;1.00;;;;;22.34;39.02;100624.47;4928367;28;45219;-55
2022/09/26 03:23:44;;;;;;;;;1.00;1.00;;;;;22.33;39.24;100608.72;4925324;28;47503;-52
2022/09/26 03:26:14;;;;;;;;;0.50;0.25;;;;;22.35;39.18;100622.66;4928595;28;44666;-49
2022/09/26 03:28:40;;;;;;;;;1.00;1.00;;;;;22.34;39.11;100615.69;4922329;28;45326;-47
2022/09/26 03:31:06;;;;;;;;;0.00;0.00;;;;;22.35;39.02;100625.31;4923427;28;45223;-56
2022/09/26 03:33:31;;;;;;;;;1.00;1.00;;;;;22.34;39.06;100611.25;4924419;28;45380;-52
2022/09/26 03:35:58;;;;;;;;;1.50;0.00;;;;;22.34;39.17;100610.41;4924853;28;45112;-54
2022/09/26 03:38:24;;;;;;;;;0.25;0.00;;;;;22.34;39.07;100605.13;4922896;28;45308;-54
2022/09/26 03:40:50;;;;;;;;;0.00;0.00;;;;;22.34;39.19;100607.75;4919986;28;45796;-51
2022/09/26 03:43:15;;;;;;;;;0.75;0.75;;;;;22.34;39.29;100599.84;4923115;28;46000;-52
2022/09/26 03:45:40;;;;;;;;;1.00;0.00;;;;;22.33;38.74;100592.88;4927770;28;56623;-50
2022/09/26 03:48:05;;;;;;;;;0.00;0.00;;;;;22.32;38.94;100581.47;4935991;28;45396;-54
2022/09/26 03:50:32;;;;;;;;;0.00;0.00;;;;;22.33;38.90;100582.31;4945151;28;45428;-52
2022/09/26 03:52:59;;;;;;;;;0.75;0.75;;;;;22.31;38.94;100577.13;4953554;28;47583;-55
2022/09/26 03:55:25;;;;;;;;;1.00;1.00;;;;;22.31;39.04;100581.59;4953075;28;45251;-52
2022/09/26 03:57:50;;;;;;;;;0.00;0.00;;;;;22.32;38.96;100575.34;4944836;28;45230;-52
2022/09/26 04:00:16;;;;;;;;;0.50;0.50;;;;;22.32;39.06;100572.72;4945213;28;45345;-52
2022/09/26 04:02:42;;;;;;;;;0.50;0.50;;;;;22.31;39.45;100573.66;4945016;28;47061;-49
2022/09/26 04:05:08;;;;;;;;;0.75;0.00;;;;;22.30;38.82;100562.25;4937945;28;45511;-50
2022/09/26 04:07:33;;;;;;;;;0.00;0.00;;;;;22.30;39.06;100570.16;4924087;28;45310;-52
2022/09/26 04:09:58;;;;;;;;;0.00;0.00;;;;;22.31;39.15;100563.94;4922522;28;56499;-50
2022/09/26 04:12:24;;;;;;;;;0.75;0.75;;;;;22.30;39.09;100562.25;4924457;28;54966;-56
2022/09/26 04:14:49;;;;;;;;;1.00;1.00;;;;;22.30;39.02;100545.56;4926361;28;45868;-52
2022/09/26 04:17:15;;;;;;;;;1.67;1.00;;;;;22.30;38.95;100540.28;4920083;28;64716;-55
2022/09/26 04:19:40;;;;;;;;;1.00;1.00;;;;;22.29;39.13;100539.44;4921807;28;45794;-50
2022/09/26 04:22:07;;;;;;;;;0.50;0.50;;;;;22.29;39.04;100533.31;4921048;28;45678;-52
2022/09/26 04:24:32;;;;;;;;;1.00;1.00;;;;;22.29;39.16;100523.59;4921168;28;45828;-51
2022/09/26 04:26:58;;;;;;;;;1.00;1.00;;;;;22.28;38.94;100519.25;4921103;28;45366;-54
2022/09/26 04:29:24;;;;;;;;;1.00;1.00;;;;;22.28;38.99;100515.78;4921434;28;45440;-50
2022/09/26 04:31:50;;;;;;;;;0.50;0.50;;;;;22.28;39.13;100511.34;4920821;28;46644;-53
2022/09/26 04:34:15;;;;;;;;;0.25;0.25;;;;;22.29;39.07;100506.91;4922161;28;45429;-52
2022/09/26 04:36:41;;;;;;;;;1.00;1.00;;;;;22.28;39.04;100505.22;4921813;28;45267;-50
2022/09/26 04:39:06;;;;;;;;;0.75;0.75;;;;;22.28;38.96;100497.31;4925669;28;45366;-52
2022/09/26 04:41:32;;;;;;;;;0.50;0.50;;;;;22.27;38.99;100493.81;4929530;28;45450;-52
2022/09/26 04:43:58;;;;;;;;;1.00;0.00;;;;;22.27;38.95;100490.34;4928723;28;45145;-52
2022/09/26 04:46:26;;;;;;;;;0.00;0.00;;;;;22.27;38.86;100485.88;4925018;28;45288;-51
2022/09/26 04:48:53;;;;;;;;;0.00;0.00;;;;;22.26;39.10;100476.31;4928090;28;45493;-52
2022/09/26 04:51:21;;;;;;;;;0.50;0.50;;;;;22.26;38.98;100464.88;4927885;28;45684;-51
2022/09/26 04:53:46;;;;;;;;;0.00;0.00;;;;;22.25;39.11;100464.06;4926447;28;45736;-58
2022/09/26 04:56:14;;;;;;;;;0.00;0.00;;;;;22.25;38.81;100461.41;4930339;28;45242;-49
2022/09/26 04:58:41;;;;;;;;;1.00;1.00;;;;;22.26;39.08;100464.88;4934760;28;45468;-53
2022/09/26 05:01:09;;;;;;;;;2.00;0.50;;;;;22.26;39.09;100470.16;4925217;28;46101;-53
2022/09/26 05:03:37;;;;;;;;;0.75;0.75;;;;;22.24;38.72;100470.28;4926480;28;45298;-51
2022/09/26 05:06:06;;;;;;;;;0.25;0.00;;;;;22.24;39.04;100460.53;4941227;28;45286;-49
2022/09/26 05:08:31;;;;;;;;;1.00;1.00;;;;;22.23;38.90;100453.56;4945028;28;45354;-53
2022/09/26 05:10:56;;;;;;;;;1.00;1.00;;;;;22.24;39.14;100451.78;4947177;28;45435;-51
2022/09/26 05:13:25;;;;;;;;;0.25;0.25;;;;;22.23;38.70;100437.75;4942688;28;45289;-52
2022/09/26 05:15:54;;;;;;;;;1.00;1.00;;;;;22.23;38.84;100435.09;4943684;28;45272;-51
2022/09/26 05:18:24;;;;;;;;;0.00;0.00;;;;;22.23;38.93;100424.53;4943114;28;45452;-51
2022/09/26 05:20:49;;;;;;;;;1.00;0.00;;;;;22.22;39.00;100414.94;4921955;28;46101;-49
2022/09/26 05:26:18;;;;;;;;;3.25;1.00;;;;;22.22;39.07;100414.94;4922898;28;45372;-52
2022/09/26 05:26:20;;;;;;;;;2.00;0.50;;;;;22.21;38.82;100405.31;4938933;28;45193;-53
2022/09/26 05:28:53;;;;;;;;;0.00;0.00;;;;;22.21;38.75;100405.31;4931075;28;45319;-56
2022/09/26 05:31:19;;;;;;;;;0.00;0.00;;;;;22.20;38.85;100403.66;4920142;28;47148;-58
2022/09/26 05:33:45;;;;;;;;;0.00;0.00;;;;;22.20;38.95;100393.09;4920857;28;45451;-52
2022/09/26 05:36:12;;;;;;;;;0.00;0.00;;;;;22.20;38.89;100397.50;4924069;28;45180;-51
2022/09/26 05:38:37;;;;;;;;;0.50;0.50;;;;;22.19;38.99;100394.03;4923465;28;45310;-50
2022/09/26 05:41:03;;;;;;;;;2.25;0.00;;;;;22.20;38.75;100402.78;4919024;28;46374;-51
2022/09/26 05:43:30;;;;;;;;;0.00;0.00;;;;;22.18;38.76;100397.63;4920471;28;45271;-55
2022/09/26 05:45:57;;;;;;;;;0.25;0.00;;;;;22.18;38.97;100391.50;4920556;28;45388;-55
2022/09/26 05:48:24;;;;;;;;;1.00;0.25;;;;;22.18;38.89;100396.78;4923440;28;45434;-52
2022/09/26 05:50:50;;;;;;;;;0.75;0.75;;;;;22.18;39.03;100389.72;4925057;28;47187;-53
2022/09/26 05:53:15;;;;;;;;;0.50;0.00;;;;;22.17;39.04;100390.66;4938827;28;44736;-52
2022/09/26 05:55:40;;;;;;;;;0.00;0.00;;;;;22.18;38.71;100388.84;4928137;28;45362;-52
2022/09/26 05:58:06;;;;;;;;;0.00;0.00;;;;;22.17;38.77;100388.03;4924648;28;45370;-54
2022/09/26 06:00:33;;;;;;;;;0.00;0.00;;;;;22.17;38.74;100382.75;4924720;28;46463;-51
2022/09/26 06:03:05;;;;;;;;;1.00;1.00;;;;;22.17;39.09;100382.75;4924750;28;45878;-52
2022/09/26 06:05:32;;;;;;;;;0.50;0.50;;;;;22.16;38.76;100386.34;4924709;28;45376;-52
2022/09/26 06:08:00;;;;;;;;;0.25;0.25;;;;;22.16;38.83;100383.69;4924031;28;45244;-51
2022/09/26 06:10:26;;;;;;;;;0.25;0.25;;;;;22.16;38.94;100386.34;4919637;28;47128;-54
2022/09/26 06:12:51;;;;;;;;;0.25;0.25;;;;;22.16;38.64;100383.69;4923891;28;45436;-55
2022/09/26 06:15:16;;;;;;;;;0.50;0.50;;;;;22.16;38.69;100386.34;4924497;28;55698;-55
2022/09/26 06:17:42;;;;;;;;;0.50;0.50;;;;;22.16;38.64;100385.50;4924625;28;45413;-56
2022/09/26 06:20:08;;;;;;;;;0.00;0.00;;;;;22.15;38.63;100379.34;4925993;28;49503;-52
2022/09/26 06:22:40;;;;;;;;;0.25;0.25;;;;;22.14;38.79;100375.03;4920078;28;45511;-51
2022/09/26 06:25:07;;;;;;;;;2.00;0.00;;;;;22.14;38.81;100385.59;4933199;28;45406;-51
2022/09/26 06:27:37;;;;;;;;;0.75;0.75;;;;;22.16;39.00;100380.22;4943539;28;44892;-52
2022/09/26 06:30:11;;;;;;;;;0.00;0.00;;;;;22.15;38.94;100367.97;4941054;28;46317;-53
2022/09/26 06:32:38;;;;;;;;;0.75;0.75;;;;;22.15;38.69;100365.34;4940632;28;45258;-58
2022/09/26 06:35:04;;;;;;;;;1.00;1.00;;;;;22.15;39.00;100367.97;4942356;28;44724;-56
2022/09/26 06:37:29;;;;;;;;;1.25;1.25;;;;;22.13;39.27;100368.06;4941430;28;44925;-57
2022/09/26 06:39:55;;;;;;;;;2.00;1.00;;;;;22.14;39.02;100366.28;4932482;28;45303;-53
2022/09/26 06:42:20;;;;;;;;;0.00;0.00;;;;;22.13;38.92;100357.50;4921662;28;45994;-54
2022/09/26 06:44:45;;;;;;;;;0.00;0.00;;;;;22.12;38.91;100352.34;4922292;28;47566;-56
2022/09/26 06:47:11;;;;;;;;;2.00;0.00;;;;;22.12;38.91;100358.44;4922273;28;45347;-58
2022/09/26 06:49:37;;;;;;;;;0.00;0.00;;;;;22.13;38.69;100359.31;4920480;28;47221;-54
2022/09/26 06:52:02;;;;;;;;;0.25;0.00;;;;;22.11;38.87;100351.47;4919387;28;45384;-48
2022/09/26 06:54:28;;;;;;;;;0.75;0.00;;;;;22.11;38.86;100351.47;4921497;28;45722;-48
2022/09/26 06:56:53;;;;;;;;;1.00;1.00;;;;;22.10;38.86;100349.81;4922468;28;44850;-47
2022/09/26 06:59:18;;;;;;;;;1.00;0.00;;;;;22.10;38.99;100339.25;4929882;28;45427;-47
2022/09/26 07:01:46;;;;;;;;;0.25;0.25;;;;;22.10;38.73;100344.53;4932822;28;56233;-49
2022/09/26 07:04:14;;;;;;;;;2.00;0.00;;;;;22.10;39.05;100331.34;4929051;28;45567;-51
2022/09/26 07:06:40;;;;;;;;;1.00;0.50;;;;;22.11;38.99;100330.38;4933864;28;45471;-50
2022/09/26 07:09:05;;;;;;;;;0.25;0.25;;;;;22.11;39.23;100325.09;4935704;28;45330;-54
2022/09/26 07:11:31;;;;;;;;;0.00;0.00;;;;;22.11;38.93;100326.91;4937220;28;45265;-49
2022/09/26 07:13:59;;;;;;;;;0.75;0.00;;;;;22.11;39.19;100313.69;4931341;28;45404;-50
2022/09/26 07:16:25;;;;;;;;;1.00;1.00;;;;;22.11;38.93;100319.81;4929514;28;45342;-55
2022/09/26 07:18:51;;;;;;;;;0.75;0.75;;;;;22.11;39.01;100308.44;4926188;28;46588;-54
2022/09/26 07:21:16;;;;;;;;;1.25;0.00;;;;;22.10;39.06;100299.69;4920695;28;45342;-47
2022/09/26 07:23:41;;;;;;;;;0.50;0.50;;;;;22.10;38.80;100297.03;4921663;28;48751;-52
2022/09/26 07:26:07;;;;;;;;;0.00;0.00;;;;;22.10;39.04;100294.41;4930318;28;45211;-51
2022/09/26 07:28:33;;;;;;;;;2.00;0.25;;;;;22.12;38.80;100283.72;4934731;28;45015;-54
2022/09/26 07:30:59;;;;;;;;;0.75;0.00;;;;;22.11;38.92;100282.88;4933061;28;45260;-48
2022/09/26 07:33:25;;;;;;;;;0.00;0.00;;;;;22.11;38.89;100277.59;4930756;28;45853;-48
2022/09/26 07:35:51;;;;;;;;;1.00;0.00;;;;;22.10;38.77;100265.38;4940653;28;44834;-50
2022/09/26 07:38:16;;;;;;;;;1.75;0.00;;;;;22.11;38.90;100259.09;4942068;28;45999;-49
2022/09/26 07:40:42;;;;;;;;;2.00;1.00;;;;;22.11;38.85;100255.66;4937903;28;44709;-52
2022/09/26 07:43:09;;;;;;;;;0.50;0.00;;;;;22.10;38.61;100246.91;4927264;28;45408;-51
2022/09/26 07:51:04;;;;;;;;;3.50;1.00;;;;;22.12;39.02;100237.03;4928540;28;45274;-49
2022/09/26 07:53:29;;;;;;;;;2.50;1.00;;;;;22.12;38.80;100244.13;4930145;28;45255;-46
2022/09/26 07:58:52;;;;;;;;;1.75;1.50;;;;;22.10;38.98;100236.34;4921837;28;46092;-50
2022/09/26 08:01:17;;;;;;;;;2.00;2.00;;;;;22.11;38.80;100243.28;4931977;28;45617;-48
2022/09/26 08:03:46;;;;;;;;;2.00;2.00;;;;;22.11;38.95;100235.34;4930604;28;45546;-49
2022/09/26 08:06:13;;;;;;;;;2.00;2.00;;;;;22.10;38.50;100223.16;4933286;28;45620;-52
2022/09/26 08:08:40;;;;;;;;;1.50;1.00;;;;;22.11;38.78;100235.34;4931548;28;46905;-49
2022/09/26 08:11:14;;;;;;;;;2.75;1.00;;;;;22.11;38.66;100224.81;4925490;28;45945;-45
2022/09/26 08:13:42;;;;;;;;;2.75;1.75;;;;;22.11;38.51;100232.72;4909760;28;45330;-53
2022/09/26 08:16:08;;;;;;;;;1.00;1.00;;;;;22.11;38.47;100227.44;4922979;28;45468;-49
2022/09/26 08:18:33;;;;;;;;;0.75;0.00;;;;;22.11;38.52;100214.25;4924231;28;46304;-48
2022/09/26 08:21:04;;;;;;;;;1.00;1.00;;;;;22.12;38.56;100218.56;4923069;28;45282;-53
2022/09/26 08:23:31;;;;;;;;;1.00;1.00;;;;;22.10;38.54;100209.94;4924611;28;45363;-51
2022/09/26 08:25:57;;;;;;;;;2.50;2.00;;;;;22.07;38.63;100208.34;4924797;28;45480;-54
2022/09/26 08:28:26;;;;;;;;;1.25;1.00;;;;;22.06;38.29;100206.66;4933236;28;46988;-50
2022/09/26 08:30:51;;;;;;;;;1.00;1.00;;;;;22.05;38.23;100199.69;4930256;28;45447;-50
2022/09/26 08:33:17;;;;;;;;;2.00;1.00;;;;;22.06;38.48;100201.38;4926223;28;56641;-45
2022/09/26 08:35:43;;;;;;;;;1.00;1.00;;;;;22.06;38.41;100190.00;4925069;28;45696;-49
2022/09/26 08:38:08;;;;;;;;;0.75;0.75;;;;;22.07;38.34;100196.97;4924052;28;46126;-49
2022/09/26 08:40:44;;;;;;;;;1.25;1.00;;;;;22.08;38.23;100188.09;4920310;28;45354;-54
2022/09/26 08:43:28;;;;;;;;;1.00;1.00;;;;;22.07;38.55;100175.84;4921255;28;45495;-54
2022/09/26 08:46:44;;;;;;;;;4.00;1.00;;;;;22.06;38.40;100175.00;4924533;28;45551;-54
2022/09/26 08:49:31;;;;;;;;;3.00;0.50;;;;;22.05;38.29;100161.91;4922540;28;47408;-48
2022/09/26 08:52:00;;;;;;;;;1.50;1.50;;;;;22.05;38.42;100173.31;4924001;28;45675;-54
2022/09/26 08:54:46;;;;;;;;;2.25;1.00;;;;;22.06;38.55;100163.63;4925875;28;45436;-55
2022/09/26 08:57:20;;;;;;;;;3.50;1.00;;;;;22.06;38.36;100156.53;4928795;28;45767;-51
2022/09/26 08:59:47;;;;;;;;;3.75;2.00;;;;;22.06;38.43;100160.97;4920701;28;46210;-51
2022/09/26 09:02:26;;;;;;;;;3.75;1.25;;;;;22.06;38.44;100153.88;4924310;28;45802;-50
2022/09/26 09:05:04;;;;;;;;;3.00;1.50;;;;;22.08;38.34;100156.44;4928056;28;45328;-51
2022/09/26 09:07:29;;;;;;;;;1.50;1.00;;;;;22.08;38.20;100143.25;4930304;28;45790;-53
2022/09/26 09:10:00;;;;;;;;;1.00;1.00;;;;;22.06;38.28;100134.59;4934535;28;45255;-47
2022/09/26 09:12:56;;;;;;;;;0.25;0.25;;;;;22.06;38.26;100124.03;4936009;28;45837;-53
2022/09/26 09:15:36;;;;;;;;;3.00;1.00;;;;;22.05;38.02;100117.88;4926627;28;45239;-47
2022/09/26 09:18:18;;;;;;;;;0.50;0.50;;;;;22.04;37.90;100113.59;4930300;28;46265;-48
2022/09/26 09:21:06;;;;;;;;;1.00;1.00;;;;;22.04;37.90;100107.47;4926354;28;45427;-45
2022/09/26 09:24:01;;;;;;;;;2.75;1.25;;;;;22.04;37.91;100096.91;4927546;28;45454;-44
2022/09/26 09:27:03;;;;;;;;;2.00;1.00;;;;;22.02;37.89;100104.09;4922812;28;45344;-49
2022/09/26 09:29:50;;;;;;;;;2.00;1.00;;;;;22.01;38.07;100097.97;4927949;28;45508;-54
2022/09/26 09:32:20;;;;;;;;;1.00;1.00;;;;;22.02;37.80;100097.03;4932039;28;47157;-47
2022/09/26 09:34:48;;;;;;;;;1.00;1.00;;;;;22.00;38.22;100091.00;4923637;28;45346;-47
2022/09/26 09:37:22;;;;;;;;;1.50;1.00;;;;;22.00;37.81;100079.59;4923597;28;45247;-46
2022/09/26 09:39:49;;;;;;;;;1.75;1.00;;;;;22.00;37.67;100082.25;4921023;28;45488;-49
2022/09/26 09:42:19;;;;;;;;;1.00;1.00;;;;;21.99;37.59;100070.03;4921881;28;48566;-47
2022/09/26 09:45:18;;;;;;;;;1.00;1.00;;;;;22.00;37.66;100063.78;4926889;28;45944;-49
2022/09/26 09:47:44;;;;;;;;;1.25;1.00;;;;;21.97;37.83;100059.56;4927746;28;45378;-48
2022/09/26 09:50:47;;;;;;;;;1.00;1.00;;;;;21.97;37.81;100064.84;4923010;28;45464;-45
2022/09/26 09:53:17;;;;;;;;;1.75;1.00;;;;;21.97;37.74;100049.03;4934007;28;45500;-47
2022/09/26 09:55:48;;;;;;;;;1.00;1.00;;;;;21.96;37.66;100054.41;4934246;28;45698;-45
2022/09/26 09:58:23;;;;;;;;;1.00;1.00;;;;;21.96;37.61;100046.50;4922061;28;45476;-46
2022/09/26 10:01:05;;;;;;;;;1.00;1.00;;;;;21.95;37.87;100039.53;4939785;28;45132;-49
2022/09/26 10:03:41;;;;;;;;;1.00;1.00;;;;;21.95;37.71;100034.25;4927893;28;45266;-51
2022/09/26 10:06:10;;;;;;;;;0.75;0.75;;;;;21.96;37.49;100031.50;4920668;28;45205;-51
2022/09/26 10:08:41;;;;;;;;;1.00;1.00;;;;;21.97;37.92;100022.63;4919907;28;45392;-49
2022/09/26 10:11:31;;;;;;;;;0.25;0.25;;;;;21.96;37.70;100020.94;4934962;28;45441;-49
2022/09/26 10:14:04;;;;;;;;;1.00;1.00;;;;;21.96;37.96;100012.22;4918741;28;47466;-47
2022/09/26 10:16:32;;;;;;;;;3.00;2.00;;;;;21.96;37.79;100007.75;4920559;28;45353;-48
2022/09/26 10:19:07;;;;;;;;;1.75;1.00;;;;;21.96;37.89;100013.03;4919446;28;45499;-50
2022/09/26 10:21:46;;;;;;;;;0.75;0.75;;;;;21.97;37.66;100008.63;4926877;28;45537;-46
2022/09/26 10:24:27;;;;;;;;;4.00;1.25;;;;;21.96;37.76;99993.75;4930022;28;46372;-50
2022/09/26 10:26:53;;;;;;;;;2.25;1.75;;;;;21.95;37.64;99992.88;4923153;28;45523;-50
2022/09/26 10:29:33;;;;;;;;;1.00;1.00;;;;;21.95;37.83;99981.50;4922857;28;45787;-51
2022/09/26 10:31:59;;;;;;;;;1.25;1.25;;;;;21.95;38.15;99957.75;4921486;28;45232;-49
2022/09/26 10:34:27;;;;;;;;;1.25;1.25;;;;;21.95;37.76;99963.03;4920627;28;46596;-49
2022/09/26 10:36:53;;;;;;;;;3.00;0.75;;;;;21.93;38.12;99950.78;4923248;28;45359;-47
2022/09/26 10:42:21;;;;;;;;;1.25;1.25;;;;;21.95;38.52;99944.56;4929903;28;45384;-46
2022/09/26 10:44:49;;;;;;;;;2.00;2.00;;;;;21.94;39.07;99938.44;4927572;28;46979;-45
2022/09/26 10:47:18;;;;;;;;;1.75;1.75;;;;;21.95;39.34;99939.28;4921570;28;45365;-51
2022/09/26 10:49:57;;;;;;;;;1.75;1.75;;;;;21.94;39.80;99946.34;4918851;28;45349;-48
2022/09/26 10:52:23;;;;;;;;;1.00;1.00;;;;;21.95;39.52;99942.75;4919503;28;45488;-52
2022/09/26 10:55:03;;;;;;;;;1.75;1.75;;;;;21.95;39.90;99931.38;4918958;28;46010;-53
2022/09/26 10:57:38;;;;;;;;;2.00;2.00;;;;;21.96;40.08;99925.13;4918966;28;45461;-52
2022/09/26 11:00:06;;;;;;;;;1.50;1.50;;;;;21.95;40.25;99918.19;4926280;28;45164;-48
2022/09/26 11:02:32;;;;;;;;;1.00;1.00;;;;;21.95;40.51;99926.91;4926916;28;45471;-56
2022/09/26 11:07:48;;;;;;;;;22.50;10.50;;;;;21.93;40.01;99927.06;4923265;28;45421;-55
2022/09/26 11:10:21;;;;;;;;;3.75;3.25;;;;;21.91;39.97;99913.13;4928674;28;45207;-54
2022/09/26 11:13:02;;;;;;;;;3.25;2.00;;;;;21.91;39.86;99913.13;4920042;28;45216;-49
2022/09/26 11:15:28;;;;;;;;;5.50;2.50;;;;;21.90;39.94;99905.34;4919716;28;47169;-52
2022/09/26 11:17:54;;;;;;;;;3.25;1.75;;;;;21.86;39.94;99896.81;4922827;28;45831;-52
2022/09/26 11:20:43;;;;;;;;;4.50;3.00;;;;;21.87;39.77;99893.22;4924427;28;45330;-57
2022/09/26 11:23:50;;;;;;;;;5.25;2.25;;;;;21.86;40.07;99890.69;4927995;28;45220;-49
2022/09/26 11:26:34;;;;;;;;;6.75;3.75;;;;;21.84;40.11;99890.81;4925879;28;46122;-47
2022/09/26 11:29:33;;;;;;;;;4.50;2.00;;;;;21.86;40.26;99890.69;4921413;28;45876;-54
2022/09/26 11:31:59;;;;;;;;;5.50;2.00;;;;;21.87;40.23;99880.03;4928063;28;45486;-48
2022/09/26 11:34:28;;;;;;;;;4.00;3.00;;;;;21.86;40.57;99880.13;4937090;28;45436;-54
2022/09/26 11:37:29;;;;;;;;;2.00;2.00;;;;;21.80;40.21;99877.97;4926870;28;46449;-54
2022/09/26 11:40:16;;;;;;;;;8.50;3.75;;;;;21.69;40.90;99865.59;4925047;28;45385;-48
2022/09/26 11:42:53;;;;;;;;;4.75;1.00;;;;;21.55;41.23;99854.25;4922329;28;45167;-46
2022/09/26 11:45:31;;;;;;;;;8.25;3.00;;;;;21.45;41.36;99853.28;4931798;28;45507;-64
2022/09/26 11:48:11;;;;;;;;;3.25;2.00;;;;;21.40;41.91;99840.44;4927085;28;47228;-54
2022/09/26 11:50:53;;;;;;;;;4.75;2.00;;;;;21.45;42.28;99837.44;4920799;28;45184;-54
2022/09/26 11:53:21;;;;;;;;;4.25;1.00;;;;;21.52;42.18;99828.16;4920702;28;45440;-46
2022/09/26 11:56:08;;;;;;;;;1.00;1.00;;;;;21.55;41.92;99824.44;4918540;28;45176;-48
2022/09/26 11:58:38;;;;;;;;;4.50;2.00;;;;;21.57;42.28;99825.97;4918961;28;47534;-46
2022/09/26 12:01:26;;;;;;;;;9.50;6.00;;;;;21.59;42.21;99826.75;4920608;28;45504;-56